createdAt,value
2023-05-14T00:00:01.864Z,94934.00
2023-05-14T00:01:01.888Z,94934.00
2023-05-14T00:02:01.958Z,94936.00
2023-05-14T00:03:01.919Z,94936.00
2023-05-14T00:04:01.889Z,94934.00
2023-05-14T00:05:01.812Z,94934.00
2023-05-14T00:06:01.803Z,94934.00
2023-05-14T00:07:01.772Z,94936.00
2023-05-14T00:08:01.788Z,94934.00
2023-05-14T00:09:01.760Z,94934.00
2023-05-14T00:10:01.760Z,94936.00
2023-05-14T00:11:01.725Z,94934.00
2023-05-14T00:12:01.689Z,94936.00
2023-05-14T00:13:01.694Z,94934.00
2023-05-14T00:14:01.677Z,94934.00
2023-05-14T00:15:01.668Z,94932.00
2023-05-14T00:16:01.687Z,94930.00
2023-05-14T00:17:01.663Z,94930.00
2023-05-14T00:18:01.731Z,94930.00
2023-05-14T00:19:01.660Z,94928.00
2023-05-14T00:20:01.629Z,94928.00
2023-05-14T00:21:01.568Z,94930.00
2023-05-14T00:22:01.582Z,94926.00
2023-05-14T00:23:01.537Z,94925.00
2023-05-14T00:24:01.583Z,94925.00
2023-05-14T00:25:01.541Z,94923.00
2023-05-14T00:26:01.526Z,94923.00
2023-05-14T00:27:01.538Z,94923.00
2023-05-14T00:28:01.556Z,94919.00
2023-05-14T00:29:01.594Z,94919.00
2023-05-14T00:30:01.612Z,94921.00
2023-05-14T00:31:01.645Z,94919.00
2023-05-14T00:32:01.666Z,94915.00
2023-05-14T00:33:01.833Z,94915.00
2023-05-14T00:34:01.736Z,94919.00
2023-05-14T00:35:01.753Z,94915.00
2023-05-14T00:36:01.812Z,94921.00
2023-05-14T00:37:01.827Z,94921.00
2023-05-14T00:38:01.851Z,94921.00
2023-05-14T00:39:01.921Z,94921.00
2023-05-14T00:40:01.956Z,94921.00
2023-05-14T00:41:01.957Z,94923.00
2023-05-14T00:42:02.025Z,94921.00
2023-05-14T00:43:02.045Z,94923.00
2023-05-14T00:44:02.054Z,94925.00
2023-05-14T00:45:02.100Z,94923.00
2023-05-14T00:46:02.148Z,94923.00
2023-05-14T00:47:02.413Z,94925.00
2023-05-14T00:48:02.220Z,94923.00
2023-05-14T00:49:02.266Z,94923.00
2023-05-14T00:50:02.273Z,94923.00
2023-05-14T00:51:02.289Z,94923.00
2023-05-14T00:52:02.321Z,94923.00
2023-05-14T00:53:02.336Z,94921.00
2023-05-14T00:54:02.368Z,94921.00
2023-05-14T00:55:02.416Z,94921.00
2023-05-14T00:56:02.419Z,94921.00
2023-05-14T00:57:02.489Z,94921.00
2023-05-14T00:58:02.539Z,94919.00
2023-05-14T00:59:02.544Z,94919.00
2023-05-14T01:00:02.578Z,94921.00
2023-05-14T01:01:02.677Z,94921.00
2023-05-14T01:02:02.663Z,94919.00
2023-05-14T01:03:02.730Z,94919.00
2023-05-14T01:04:02.809Z,94917.00
2023-05-14T01:05:02.747Z,94921.00
2023-05-14T01:06:02.794Z,94917.00
2023-05-14T01:07:02.818Z,94917.00
2023-05-14T01:08:02.866Z,94917.00
2023-05-14T01:09:02.911Z,94917.00
2023-05-14T01:10:02.975Z,94915.00
2023-05-14T01:11:02.974Z,94913.00
2023-05-14T01:12:03.005Z,94913.00
2023-05-14T01:13:03.028Z,94911.00
2023-05-14T01:14:03.093Z,94911.00
2023-05-14T01:15:03.126Z,94911.00
2023-05-14T01:16:03.234Z,94909.00
2023-05-14T01:17:03.207Z,94909.00
2023-05-14T01:18:03.241Z,94907.00
2023-05-14T01:19:03.281Z,94907.00
2023-05-14T01:20:03.263Z,94907.00
2023-05-14T01:21:03.333Z,94909.00
2023-05-14T01:22:03.376Z,94907.00
2023-05-14T01:23:03.395Z,94909.00
2023-05-14T01:24:03.409Z,94909.00
2023-05-14T01:25:03.447Z,94907.00
2023-05-14T01:26:03.493Z,94909.00
2023-05-14T01:27:03.508Z,94911.00
2023-05-14T01:28:03.576Z,94911.00
2023-05-14T01:29:03.607Z,94911.00
2023-05-14T01:30:03.638Z,94913.00
2023-05-14T01:31:03.683Z,94911.00
2023-05-14T01:32:03.810Z,94913.00
2023-05-14T01:33:03.784Z,94911.00
2023-05-14T01:34:03.763Z,94909.00
2023-05-14T01:35:03.784Z,94911.00
2023-05-14T01:36:03.823Z,94909.00
2023-05-14T01:37:03.885Z,94911.00
2023-05-14T01:38:03.896Z,94911.00
2023-05-14T01:39:03.926Z,94913.00
2023-05-14T01:40:03.949Z,94911.00
2023-05-14T01:41:04.035Z,94913.00
2023-05-14T01:42:04.031Z,94913.00
2023-05-14T01:43:04.120Z,94913.00
2023-05-14T01:44:04.091Z,94911.00
2023-05-14T01:45:04.136Z,94911.00
2023-05-14T01:46:04.220Z,94909.00
2023-05-14T01:47:04.223Z,94913.00
2023-05-14T01:48:04.267Z,94911.00
2023-05-14T01:49:04.269Z,94911.00
2023-05-14T01:50:04.315Z,94911.00
2023-05-14T01:51:04.341Z,94911.00
2023-05-14T01:52:04.389Z,94909.00
2023-05-14T01:53:04.412Z,94909.00
2023-05-14T01:54:04.445Z,94909.00
2023-05-14T01:55:04.440Z,94909.00
2023-05-14T01:56:04.505Z,94909.00
2023-05-14T01:57:04.533Z,94907.00
2023-05-14T01:58:04.577Z,94907.00
2023-05-14T01:59:04.606Z,94909.00
2023-05-14T02:00:04.677Z,94907.00
2023-05-14T02:01:04.719Z,94905.00
2023-05-14T02:02:04.710Z,94905.00
2023-05-14T02:03:04.764Z,94905.00
2023-05-14T02:04:04.864Z,94905.00
2023-05-14T02:05:06.954Z,94907.00
2023-05-14T02:06:04.830Z,94895.00
2023-05-14T02:07:04.835Z,94895.00
2023-05-14T02:08:04.889Z,94895.00
2023-05-14T02:09:04.925Z,94893.00
2023-05-14T02:10:04.950Z,94895.00
2023-05-14T02:11:04.967Z,94893.00
2023-05-14T02:12:05.017Z,94893.00
2023-05-14T02:13:05.054Z,94893.00
2023-05-14T02:14:05.100Z,94889.00
2023-05-14T02:15:05.102Z,94893.00
2023-05-14T02:16:05.212Z,94887.00
2023-05-14T02:17:05.181Z,94891.00
2023-05-14T02:18:05.274Z,94889.00
2023-05-14T02:19:05.361Z,94887.00
2023-05-14T02:20:05.289Z,94887.00
2023-05-14T02:21:05.319Z,94887.00
2023-05-14T02:22:05.383Z,94885.00
2023-05-14T02:23:05.404Z,94887.00
2023-05-14T02:24:05.447Z,94887.00
2023-05-14T02:25:05.508Z,94885.00
2023-05-14T02:26:05.506Z,94887.00
2023-05-14T02:27:05.546Z,94885.00
2023-05-14T02:28:05.590Z,94885.00
2023-05-14T02:29:05.636Z,94885.00
2023-05-14T02:30:05.662Z,94883.00
2023-05-14T02:31:05.766Z,94881.00
2023-05-14T02:32:05.763Z,94881.00
2023-05-14T02:33:05.818Z,94883.00
2023-05-14T02:34:05.792Z,94881.00
2023-05-14T02:35:05.824Z,94880.00
2023-05-14T02:36:05.826Z,94881.00
2023-05-14T02:37:05.897Z,94878.00
2023-05-14T02:38:05.906Z,94880.00
2023-05-14T02:39:06.759Z,94880.00
2023-05-14T02:40:05.964Z,94878.00
2023-05-14T02:41:05.995Z,94878.00
2023-05-14T02:42:06.056Z,94874.00
2023-05-14T02:43:06.076Z,94870.00
2023-05-14T02:44:06.098Z,94872.00
2023-05-14T02:45:06.139Z,94870.00
2023-05-14T02:46:06.161Z,94868.00
2023-05-14T02:47:06.235Z,94868.00
2023-05-14T02:48:06.364Z,94864.00
2023-05-14T02:49:06.258Z,94866.00
2023-05-14T02:50:06.279Z,94864.00
2023-05-14T02:51:06.315Z,94866.00
2023-05-14T02:52:06.307Z,94866.00
2023-05-14T02:53:06.383Z,94866.00
2023-05-14T02:54:06.432Z,94864.00
2023-05-14T02:55:06.449Z,94862.00
2023-05-14T02:56:06.420Z,94864.00
2023-05-14T02:57:06.478Z,94864.00
2023-05-14T02:58:06.485Z,94864.00
2023-05-14T02:59:06.523Z,94866.00
2023-05-14T03:00:06.593Z,94864.00
2023-05-14T03:01:06.631Z,94864.00
2023-05-14T03:02:06.648Z,94864.00
2023-05-14T03:03:06.694Z,94864.00
2023-05-14T03:04:06.702Z,94862.00
2023-05-14T03:05:06.708Z,94862.00
2023-05-14T03:06:06.738Z,94862.00
2023-05-14T03:07:06.763Z,94860.00
2023-05-14T03:08:06.816Z,94860.00
2023-05-14T03:09:06.811Z,94860.00
2023-05-14T03:10:06.873Z,94860.00
2023-05-14T03:11:06.938Z,94860.00
2023-05-14T03:12:06.954Z,94860.00
2023-05-14T03:13:06.969Z,94862.00
2023-05-14T03:14:07.018Z,94862.00
2023-05-14T03:15:07.047Z,94864.00
2023-05-14T03:16:07.069Z,94864.00
2023-05-14T03:17:07.208Z,94860.00
2023-05-14T03:18:07.182Z,94860.00
2023-05-14T03:19:07.243Z,94860.00
2023-05-14T03:20:07.186Z,94856.00
2023-05-14T03:21:07.246Z,94858.00
2023-05-14T03:22:07.247Z,94856.00
2023-05-14T03:23:07.294Z,94852.00
2023-05-14T03:24:07.365Z,94852.00
2023-05-14T03:25:07.394Z,94850.00
2023-05-14T03:26:07.451Z,94850.00
2023-05-14T03:27:07.479Z,94848.00
2023-05-14T03:28:07.493Z,94850.00
2023-05-14T03:29:07.532Z,94850.00
2023-05-14T03:30:07.543Z,94852.00
2023-05-14T03:31:07.610Z,94852.00
2023-05-14T03:32:07.629Z,94852.00
2023-05-14T03:33:07.682Z,94852.00
2023-05-14T03:34:07.716Z,94852.00
2023-05-14T03:35:07.745Z,94852.00
2023-05-14T03:36:07.774Z,94852.00
2023-05-14T03:37:07.888Z,94850.00
2023-05-14T03:38:07.827Z,94852.00
2023-05-14T03:39:07.868Z,94852.00
2023-05-14T03:40:07.917Z,94854.00
2023-05-14T03:41:07.970Z,94854.00
2023-05-14T03:42:07.943Z,94852.00
2023-05-14T03:43:08.020Z,94854.00
2023-05-14T03:44:08.026Z,94854.00
2023-05-14T03:45:08.089Z,94854.00
2023-05-14T03:46:08.094Z,94856.00
2023-05-14T03:47:08.119Z,94858.00
2023-05-14T03:48:08.363Z,94858.00
2023-05-14T03:49:08.281Z,94858.00
2023-05-14T03:50:08.224Z,94860.00
2023-05-14T03:51:08.240Z,94862.00
2023-05-14T03:52:08.263Z,94860.00
2023-05-14T03:53:08.344Z,94860.00
2023-05-14T03:54:08.387Z,94860.00
2023-05-14T03:55:08.399Z,94860.00
2023-05-14T03:56:08.424Z,94864.00
2023-05-14T03:57:08.440Z,94860.00
2023-05-14T03:58:08.507Z,94862.00
2023-05-14T03:59:08.537Z,94862.00
2023-05-14T04:00:08.530Z,94864.00
2023-05-14T04:01:08.601Z,94862.00
2023-05-14T04:02:08.584Z,94864.00
2023-05-14T04:03:08.734Z,94862.00
2023-05-14T04:04:08.736Z,94862.00
2023-05-14T04:05:08.731Z,94862.00
2023-05-14T04:06:08.718Z,94860.00
2023-05-14T04:07:08.774Z,94860.00
2023-05-14T04:08:08.788Z,94860.00
2023-05-14T04:09:08.852Z,94860.00
2023-05-14T04:10:08.851Z,94860.00
2023-05-14T04:11:08.882Z,94858.00
2023-05-14T04:12:08.890Z,94854.00
2023-05-14T04:13:08.917Z,94854.00
2023-05-14T04:14:08.938Z,94854.00
2023-05-14T04:15:08.971Z,94854.00
2023-05-14T04:16:09.023Z,94852.00
2023-05-14T04:17:09.038Z,94854.00
2023-05-14T04:18:09.115Z,94850.00
2023-05-14T04:19:09.161Z,94850.00
2023-05-14T04:20:09.160Z,94848.00
2023-05-14T04:21:09.173Z,94848.00
2023-05-14T04:22:09.219Z,94846.00
2023-05-14T04:23:09.256Z,94844.00
2023-05-14T04:24:09.246Z,94846.00
2023-05-14T04:25:09.278Z,94846.00
2023-05-14T04:26:09.288Z,94842.00
2023-05-14T04:27:09.306Z,94844.00
2023-05-14T04:28:09.321Z,94846.00
2023-05-14T04:29:09.364Z,94846.00
2023-05-14T04:30:09.362Z,94844.00
2023-05-14T04:31:09.440Z,94844.00
2023-05-14T04:32:09.450Z,94848.00
2023-05-14T04:33:09.599Z,94846.00
2023-05-14T04:34:09.514Z,94844.00
2023-05-14T04:35:09.528Z,94846.00
2023-05-14T04:36:09.543Z,94848.00
2023-05-14T04:37:09.601Z,94846.00
2023-05-14T04:38:09.596Z,94848.00
2023-05-14T04:39:09.678Z,94850.00
2023-05-14T04:40:09.704Z,94852.00
2023-05-14T04:41:09.780Z,94856.00
2023-05-14T04:42:09.752Z,94854.00
2023-05-14T04:43:09.817Z,94856.00
2023-05-14T04:44:09.850Z,94854.00
2023-05-14T04:45:09.892Z,94858.00
2023-05-14T04:46:09.926Z,94858.00
2023-05-14T04:47:09.934Z,94856.00
2023-05-14T04:48:09.978Z,94856.00
2023-05-14T04:49:09.977Z,94852.00
2023-05-14T04:50:10.096Z,94852.00
2023-05-14T04:51:10.046Z,94852.00
2023-05-14T04:52:10.085Z,94852.00
2023-05-14T04:53:10.108Z,94852.00
2023-05-14T04:54:10.164Z,94852.00
2023-05-14T04:55:10.165Z,94850.00
2023-05-14T04:56:10.218Z,94850.00
2023-05-14T04:57:10.262Z,94852.00
2023-05-14T04:58:10.263Z,94850.00
2023-05-14T04:59:10.319Z,94850.00
2023-05-14T05:00:10.350Z,94850.00
2023-05-14T05:01:10.423Z,94848.00
2023-05-14T05:02:10.412Z,94848.00
2023-05-14T05:03:10.497Z,94848.00
2023-05-14T05:04:10.606Z,94850.00
2023-05-14T05:05:10.518Z,94846.00
2023-05-14T05:06:10.514Z,94848.00
2023-05-14T05:07:10.549Z,94850.00
2023-05-14T05:08:10.591Z,94852.00
2023-05-14T05:09:10.638Z,94854.00
2023-05-14T05:10:10.638Z,94858.00
2023-05-14T05:11:10.673Z,94860.00
2023-05-14T05:12:10.731Z,94860.00
2023-05-14T05:13:10.760Z,94862.00
2023-05-14T05:14:10.856Z,94860.00
2023-05-14T05:15:10.845Z,94860.00
2023-05-14T05:16:10.956Z,94860.00
2023-05-14T05:17:10.906Z,94858.00
2023-05-14T05:18:10.964Z,94858.00
2023-05-14T05:19:11.065Z,94860.00
2023-05-14T05:20:11.052Z,94856.00
2023-05-14T05:21:11.095Z,94858.00
2023-05-14T05:22:11.110Z,94858.00
2023-05-14T05:23:11.152Z,94852.00
2023-05-14T05:24:11.260Z,94856.00
2023-05-14T05:25:11.223Z,94852.00
2023-05-14T05:26:11.277Z,94854.00
2023-05-14T05:27:11.283Z,94856.00
2023-05-14T05:28:11.357Z,94856.00
2023-05-14T05:29:11.398Z,94856.00
2023-05-14T05:30:11.400Z,94858.00
2023-05-14T05:31:11.497Z,94858.00
2023-05-14T05:32:11.489Z,94856.00
2023-05-14T05:33:11.558Z,94856.00
2023-05-14T05:34:11.568Z,94854.00
2023-05-14T05:35:11.577Z,94854.00
2023-05-14T05:36:11.648Z,94852.00
2023-05-14T05:37:11.645Z,94852.00
2023-05-14T05:38:11.666Z,94852.00
2023-05-14T05:39:11.735Z,94852.00
2023-05-14T05:40:11.792Z,94856.00
2023-05-14T05:41:11.809Z,94856.00
2023-05-14T05:42:11.824Z,94856.00
2023-05-14T05:43:11.905Z,94856.00
2023-05-14T05:44:11.928Z,94850.00
2023-05-14T05:45:11.982Z,94846.00
2023-05-14T05:46:12.072Z,94852.00
2023-05-14T05:47:12.030Z,94844.00
2023-05-14T05:48:12.050Z,94842.00
2023-05-14T05:49:12.095Z,94844.00
2023-05-14T05:50:12.149Z,94848.00
2023-05-14T05:51:12.176Z,94842.00
2023-05-14T05:52:12.822Z,94850.00
2023-05-14T05:53:12.234Z,94848.00
2023-05-14T05:54:12.281Z,94846.00
2023-05-14T05:55:12.328Z,94846.00
2023-05-14T05:56:12.366Z,94844.00
2023-05-14T05:57:12.407Z,94844.00
2023-05-14T05:58:12.432Z,94842.00
2023-05-14T05:59:12.497Z,94844.00
2023-05-14T06:00:12.530Z,94844.00
2023-05-14T06:01:12.539Z,94840.00
2023-05-14T06:02:12.663Z,94838.00
2023-05-14T06:03:12.630Z,94840.00
2023-05-14T06:04:12.682Z,94838.00
2023-05-14T06:05:12.755Z,94836.00
2023-05-14T06:06:12.784Z,94836.00
2023-05-14T06:07:12.801Z,94836.00
2023-05-14T06:08:12.878Z,94834.00
2023-05-14T06:09:12.903Z,94836.00
2023-05-14T06:10:12.908Z,94836.00
2023-05-14T06:11:12.943Z,94834.00
2023-05-14T06:12:13.007Z,94836.00
2023-05-14T06:13:13.034Z,94836.00
2023-05-14T06:14:13.074Z,94838.00
2023-05-14T06:15:13.116Z,94836.00
2023-05-14T06:16:13.178Z,94838.00
2023-05-14T06:17:13.227Z,94836.00
2023-05-14T06:18:13.204Z,94834.00
2023-05-14T06:19:13.367Z,94832.00
2023-05-14T06:20:13.306Z,94832.00
2023-05-14T06:21:13.375Z,94830.00
2023-05-14T06:22:13.400Z,94832.00
2023-05-14T06:23:13.460Z,94828.00
2023-05-14T06:24:13.460Z,94830.00
2023-05-14T06:25:13.480Z,94828.00
2023-05-14T06:26:13.566Z,94828.00
2023-05-14T06:27:13.625Z,94828.00
2023-05-14T06:28:13.624Z,94830.00
2023-05-14T06:29:13.641Z,94825.00
2023-05-14T06:30:13.691Z,94823.00
2023-05-14T06:31:13.720Z,94821.00
2023-05-14T06:32:13.862Z,94823.00
2023-05-14T06:33:13.776Z,94821.00
2023-05-14T06:34:13.846Z,94819.00
2023-05-14T06:35:13.871Z,94819.00
2023-05-14T06:36:13.893Z,94821.00
2023-05-14T06:37:13.948Z,94819.00
2023-05-14T06:38:13.988Z,94819.00
2023-05-14T06:39:14.029Z,94815.00
2023-05-14T06:40:14.082Z,94815.00
2023-05-14T06:41:14.083Z,94815.00
2023-05-14T06:42:14.158Z,94813.00
2023-05-14T06:43:14.160Z,94815.00
2023-05-14T06:44:14.186Z,94815.00
2023-05-14T06:45:14.246Z,94815.00
2023-05-14T06:46:14.286Z,94819.00
2023-05-14T06:47:14.286Z,94819.00
2023-05-14T06:48:14.399Z,94819.00
2023-05-14T06:49:14.454Z,94819.00
2023-05-14T06:50:14.412Z,94821.00
2023-05-14T06:51:14.424Z,94819.00
2023-05-14T06:52:14.475Z,94817.00
2023-05-14T06:53:14.484Z,94817.00
2023-05-14T06:54:14.495Z,94815.00
2023-05-14T06:55:14.553Z,94815.00
2023-05-14T06:56:14.573Z,94815.00
2023-05-14T06:57:14.623Z,94817.00
2023-05-14T06:58:14.678Z,94817.00
2023-05-14T06:59:14.677Z,94817.00
2023-05-14T07:00:14.699Z,94819.00
2023-05-14T07:01:14.746Z,94817.00
2023-05-14T07:02:14.726Z,94817.00
2023-05-14T07:03:14.763Z,94819.00
2023-05-14T07:04:14.885Z,94817.00
2023-05-14T07:05:14.863Z,94811.00
2023-05-14T07:06:14.889Z,94811.00
2023-05-14T07:07:14.899Z,94809.00
2023-05-14T07:08:14.918Z,94805.00
2023-05-14T07:09:14.936Z,94809.00
2023-05-14T07:10:14.977Z,94807.00
2023-05-14T07:11:15.032Z,94807.00
2023-05-14T07:12:15.036Z,94807.00
2023-05-14T07:13:15.052Z,94807.00
2023-05-14T07:14:15.062Z,94805.00
2023-05-14T07:15:15.107Z,94805.00
2023-05-14T07:16:15.142Z,94807.00
2023-05-14T07:17:15.241Z,94803.00
2023-05-14T07:18:15.273Z,94805.00
2023-05-14T07:19:15.401Z,94803.00
2023-05-14T07:20:15.261Z,94803.00
2023-05-14T07:21:15.294Z,94801.00
2023-05-14T07:22:15.349Z,94801.00
2023-05-14T07:23:15.810Z,94795.00
2023-05-14T07:24:15.380Z,94795.00
2023-05-14T07:25:15.395Z,94795.00
2023-05-14T07:26:15.407Z,94791.00
2023-05-14T07:27:15.466Z,94787.00
2023-05-14T07:28:15.451Z,94786.00
2023-05-14T07:29:15.530Z,94782.00
2023-05-14T07:30:15.557Z,94782.00
2023-05-14T07:31:15.586Z,94784.00
2023-05-14T07:32:15.850Z,94782.00
2023-05-14T07:33:15.588Z,94780.00
2023-05-14T07:34:15.659Z,94778.00
2023-05-14T07:35:15.646Z,94776.00
2023-05-14T07:36:16.358Z,94774.00
2023-05-14T07:37:15.688Z,94774.00
2023-05-14T07:38:15.721Z,94770.00
2023-05-14T07:39:15.765Z,94770.00
2023-05-14T07:40:15.751Z,94770.00
2023-05-14T07:41:15.797Z,94768.00
2023-05-14T07:42:28.032Z,94766.00
2023-05-14T07:43:16.769Z,94766.00
2023-05-14T07:44:15.745Z,94764.00
2023-05-14T07:45:15.723Z,94762.00
2023-05-14T07:46:15.743Z,94760.00
2023-05-14T07:47:15.721Z,94760.00
2023-05-14T07:48:15.802Z,94756.00
2023-05-14T07:49:15.666Z,94752.00
2023-05-14T07:50:15.663Z,94756.00
2023-05-14T07:51:15.723Z,94754.00
2023-05-14T07:52:15.653Z,94754.00
2023-05-14T07:53:15.655Z,94754.00
2023-05-14T07:54:15.591Z,94752.00
2023-05-14T07:55:15.630Z,94754.00
2023-05-14T07:56:15.642Z,94754.00
2023-05-14T07:57:15.603Z,94754.00
2023-05-14T07:58:15.556Z,94752.00
2023-05-14T07:59:15.539Z,94750.00
2023-05-14T08:00:15.516Z,94748.00
2023-05-14T08:01:15.532Z,94748.00
2023-05-14T08:02:15.672Z,94746.00
2023-05-14T08:03:15.710Z,94744.00
2023-05-14T08:04:15.650Z,94742.00
2023-05-14T08:05:15.632Z,94744.00
2023-05-14T08:06:15.649Z,94742.00
2023-05-14T08:07:15.646Z,94739.00
2023-05-14T08:08:15.661Z,94739.00
2023-05-14T08:09:15.682Z,94737.00
2023-05-14T08:10:15.668Z,94737.00
2023-05-14T08:11:15.789Z,94733.00
2023-05-14T08:12:15.717Z,94733.00
2023-05-14T08:13:15.719Z,94733.00
2023-05-14T08:14:15.728Z,94731.00
2023-05-14T08:15:15.784Z,94729.00
2023-05-14T08:16:15.852Z,94729.00
2023-05-14T08:17:15.946Z,94729.00
2023-05-14T08:18:15.841Z,94725.00
2023-05-14T08:19:15.871Z,94723.00
2023-05-14T08:20:15.875Z,94723.00
2023-05-14T08:21:15.875Z,94723.00
2023-05-14T08:22:15.918Z,94721.00
2023-05-14T08:23:15.914Z,94717.00
2023-05-14T08:24:15.938Z,94723.00
2023-05-14T08:25:15.978Z,94723.00
2023-05-14T08:26:15.973Z,94719.00
2023-05-14T08:27:15.960Z,94719.00
2023-05-14T08:28:16.008Z,94717.00
2023-05-14T08:29:16.707Z,94719.00
2023-05-14T08:30:16.033Z,94715.00
2023-05-14T08:31:16.078Z,94715.00
2023-05-14T08:32:23.458Z,94713.00
2023-05-14T08:33:17.102Z,94711.00
2023-05-14T08:34:15.997Z,94711.00
2023-05-14T08:35:15.988Z,94709.00
2023-05-14T08:36:15.991Z,94707.00
2023-05-14T08:37:15.959Z,94713.00
2023-05-14T08:38:15.949Z,94711.00
2023-05-14T08:39:15.958Z,94711.00
2023-05-14T08:40:15.931Z,94713.00
2023-05-14T08:41:15.915Z,94711.00
2023-05-14T08:42:15.897Z,94709.00
2023-05-14T08:43:15.891Z,94713.00
2023-05-14T08:44:15.880Z,94707.00
2023-05-14T08:45:15.845Z,94703.00
2023-05-14T08:46:15.881Z,94701.00
2023-05-14T08:47:15.833Z,94703.00
2023-05-14T08:48:15.926Z,94703.00
2023-05-14T08:49:15.823Z,94705.00
2023-05-14T08:50:15.806Z,94703.00
2023-05-14T08:51:15.783Z,94703.00
2023-05-14T08:52:15.815Z,94703.00
2023-05-14T08:53:15.751Z,94699.00
2023-05-14T08:54:15.737Z,94701.00
2023-05-14T08:55:15.714Z,94699.00
2023-05-14T08:56:15.690Z,94701.00
2023-05-14T08:57:15.683Z,94701.00
2023-05-14T08:58:15.676Z,94699.00
2023-05-14T08:59:15.725Z,94697.00
2023-05-14T09:00:15.707Z,94697.00
2023-05-14T09:01:15.772Z,94695.00
2023-05-14T09:02:15.737Z,94695.00
2023-05-14T09:03:15.902Z,94693.00
2023-05-14T09:04:15.805Z,94695.00
2023-05-14T09:05:15.742Z,94693.00
2023-05-14T09:06:15.753Z,94692.00
2023-05-14T09:07:15.760Z,94692.00
2023-05-14T09:08:15.749Z,94690.00
2023-05-14T09:09:15.779Z,94692.00
2023-05-14T09:10:15.792Z,94693.00
2023-05-14T09:11:15.786Z,94693.00
2023-05-14T09:12:15.806Z,94692.00
2023-05-14T09:13:15.807Z,94690.00
2023-05-14T09:14:15.796Z,94690.00
2023-05-14T09:15:15.791Z,94690.00
2023-05-14T09:16:15.853Z,94690.00
2023-05-14T09:17:15.841Z,94690.00
2023-05-14T09:18:15.875Z,94688.00
2023-05-14T09:19:16.207Z,94688.00
2023-05-14T09:20:15.877Z,94686.00
2023-05-14T09:21:15.881Z,94682.00
2023-05-14T09:22:15.877Z,94686.00
2023-05-14T09:23:15.913Z,94682.00
2023-05-14T09:24:15.884Z,94678.00
2023-05-14T09:25:15.898Z,94676.00
2023-05-14T09:26:15.919Z,94678.00
2023-05-14T09:27:15.912Z,94676.00
2023-05-14T09:28:15.889Z,94674.00
2023-05-14T09:29:15.904Z,94676.00
2023-05-14T09:30:15.939Z,94670.00
2023-05-14T09:31:15.935Z,94672.00
2023-05-14T09:32:15.926Z,94672.00
2023-05-14T09:33:15.945Z,94670.00
2023-05-14T09:34:15.937Z,94670.00
2023-05-14T09:35:15.941Z,94668.00
2023-05-14T09:36:15.895Z,94668.00
2023-05-14T09:37:15.916Z,94666.00
2023-05-14T09:38:15.960Z,94664.00
2023-05-14T09:39:15.915Z,94660.00
2023-05-14T09:40:15.904Z,94660.00
2023-05-14T09:41:15.924Z,94656.00
2023-05-14T09:42:15.929Z,94656.00
2023-05-14T09:43:15.914Z,94654.00
2023-05-14T09:44:15.913Z,94654.00
2023-05-14T09:45:15.908Z,94650.00
2023-05-14T09:46:15.915Z,94646.00
2023-05-14T09:47:15.950Z,94646.00
2023-05-14T09:48:15.923Z,94637.00
2023-05-14T09:49:15.910Z,94635.00
2023-05-14T09:50:15.936Z,94633.00
2023-05-14T09:51:15.897Z,94631.00
2023-05-14T09:52:15.900Z,94629.00
2023-05-14T09:53:15.894Z,94629.00
2023-05-14T09:54:15.924Z,94629.00
2023-05-14T09:55:15.913Z,94625.00
2023-05-14T09:56:15.878Z,94629.00
2023-05-14T09:57:15.877Z,94627.00
2023-05-14T09:58:15.881Z,94631.00
2023-05-14T09:59:15.867Z,94627.00
2023-05-14T10:00:15.901Z,94627.00
2023-05-14T10:01:15.895Z,94623.00
2023-05-14T10:02:15.886Z,94625.00
2023-05-14T10:03:17.987Z,94623.00
2023-05-14T10:04:15.866Z,94625.00
2023-05-14T10:05:15.860Z,94625.00
2023-05-14T10:06:15.793Z,94625.00
2023-05-14T10:07:15.787Z,94623.00
2023-05-14T10:08:15.759Z,94623.00
2023-05-14T10:09:15.768Z,94625.00
2023-05-14T10:10:15.756Z,94625.00
2023-05-14T10:11:15.720Z,94625.00
2023-05-14T10:12:15.682Z,94625.00
2023-05-14T10:13:15.662Z,94625.00
2023-05-14T10:14:15.621Z,94625.00
2023-05-14T10:15:15.640Z,94627.00
2023-05-14T10:16:15.613Z,94623.00
2023-05-14T10:17:15.604Z,94621.00
2023-05-14T10:18:15.602Z,94623.00
2023-05-14T10:19:15.557Z,94619.00
2023-05-14T10:20:15.544Z,94617.00
2023-05-14T10:21:15.516Z,94617.00
2023-05-14T10:22:15.468Z,94619.00
2023-05-14T10:23:15.444Z,94619.00
2023-05-14T10:24:15.438Z,94615.00
2023-05-14T10:25:15.418Z,94611.00
2023-05-14T10:26:15.354Z,94611.00
2023-05-14T10:27:15.388Z,94603.00
2023-05-14T10:28:15.346Z,94611.00
2023-05-14T10:29:15.302Z,94605.00
2023-05-14T10:30:15.321Z,94601.00
2023-05-14T10:31:15.279Z,94601.00
2023-05-14T10:32:15.225Z,94599.00
2023-05-14T10:33:15.314Z,94601.00
2023-05-14T10:34:15.189Z,94597.00
2023-05-14T10:35:15.192Z,94597.00
2023-05-14T10:36:15.136Z,94597.00
2023-05-14T10:37:15.135Z,94599.00
2023-05-14T10:38:15.113Z,94597.00
2023-05-14T10:39:15.075Z,94597.00
2023-05-14T10:40:15.086Z,94593.00
2023-05-14T10:41:15.030Z,94601.00
2023-05-14T10:42:15.022Z,94595.00
2023-05-14T10:43:15.008Z,94595.00
2023-05-14T10:44:14.995Z,94599.00
2023-05-14T10:45:14.931Z,94597.00
2023-05-14T10:46:15.000Z,94599.00
2023-05-14T10:47:14.934Z,94597.00
2023-05-14T10:48:14.930Z,94595.00
2023-05-14T10:49:14.860Z,94597.00
2023-05-14T10:50:14.839Z,94599.00
2023-05-14T10:51:14.841Z,94595.00
2023-05-14T10:52:14.807Z,94595.00
2023-05-14T10:53:14.791Z,94592.00
2023-05-14T10:54:14.769Z,94593.00
2023-05-14T10:55:14.748Z,94590.00
2023-05-14T10:56:14.737Z,94590.00
2023-05-14T10:57:14.684Z,94586.00
2023-05-14T10:58:14.710Z,94586.00
2023-05-14T10:59:14.672Z,94582.00
2023-05-14T11:00:14.743Z,94580.00
2023-05-14T11:01:14.629Z,94578.00
2023-05-14T11:02:14.700Z,94574.00
2023-05-14T11:03:14.655Z,94572.00
2023-05-14T11:04:14.597Z,94568.00
2023-05-14T11:05:14.573Z,94564.00
2023-05-14T11:06:14.514Z,94562.00
2023-05-14T11:07:14.529Z,94568.00
2023-05-14T11:08:14.520Z,94560.00
2023-05-14T11:09:14.525Z,94564.00
2023-05-14T11:10:14.459Z,94564.00
2023-05-14T11:11:14.463Z,94562.00
2023-05-14T11:12:14.453Z,94558.00
2023-05-14T11:13:14.413Z,94562.00
2023-05-14T11:14:14.359Z,94560.00
2023-05-14T11:15:14.364Z,94560.00
2023-05-14T11:16:22.581Z,94558.00
2023-05-14T11:17:15.490Z,94560.00
2023-05-14T11:18:14.299Z,94558.00
2023-05-14T11:19:14.316Z,94556.00
2023-05-14T11:20:14.254Z,94554.00
2023-05-14T11:21:14.230Z,94550.00
2023-05-14T11:22:14.261Z,94550.00
2023-05-14T11:23:14.178Z,94548.00
2023-05-14T11:24:14.145Z,94546.00
2023-05-14T11:25:14.109Z,94543.00
2023-05-14T11:26:14.159Z,94546.00
2023-05-14T11:27:14.052Z,94545.00
2023-05-14T11:28:14.031Z,94543.00
2023-05-14T11:29:14.040Z,94541.00
2023-05-14T11:30:13.992Z,94539.00
2023-05-14T11:31:14.013Z,94543.00
2023-05-14T11:32:13.976Z,94541.00
2023-05-14T11:33:13.964Z,94535.00
2023-05-14T11:34:13.916Z,94541.00
2023-05-14T11:35:13.933Z,94541.00
2023-05-14T11:36:13.874Z,94541.00
2023-05-14T11:37:13.876Z,94535.00
2023-05-14T11:38:13.876Z,94533.00
2023-05-14T11:39:13.869Z,94533.00
2023-05-14T11:40:13.888Z,94531.00
2023-05-14T11:41:13.873Z,94531.00
2023-05-14T11:42:13.848Z,94533.00
2023-05-14T11:43:13.861Z,94533.00
2023-05-14T11:44:13.867Z,94537.00